Time;durP1;ratioP1;P1;durP2;ratioP2;P2;SDS_P1;SDS_P2;PMS_P1;PMS_P2;Temp;Humidity;BMP_temperature;BMP_pressure;BME280_temperature;BME280_humidity;BME280_pressure;Samples;Min_cycle;Max_cycle;Signal;HPM_P1;HPM_P2
2021/08/11 00:01:34;;;;;;;7.70;5.27;;;19.30;87.10;;;;;;5053376;28;20179;-73
2021/08/11 00:03:59;;;;;;;7.27;4.53;;;19.30;86.80;;;;;;5047516;28;20190;-73
2021/08/11 00:06:25;;;;;;;8.60;4.87;;;19.40;86.80;;;;;;5053258;28;20181;-73
2021/08/11 00:08:51;;;;;;;9.33;4.60;;;19.30;86.80;;;;;;5043525;28;20181;-73
2021/08/11 00:11:17;;;;;;;9.13;4.83;;;19.30;86.60;;;;;;5052267;28;20213;-74
2021/08/11 00:13:43;;;;;;;6.73;4.40;;;19.20;86.90;;;;;;5049827;28;20221;-73
2021/08/11 00:16:09;;;;;;;8.23;5.00;;;19.20;87.10;;;;;;5051705;28;20491;-73
2021/08/11 00:18:35;;;;;;;7.50;4.83;;;19.20;87.00;;;;;;5048611;28;20249;-74
2021/08/11 00:21:01;;;;;;;9.00;5.00;;;19.20;87.10;;;;;;5053025;28;20751;-72
2021/08/11 00:23:27;;;;;;;10.30;5.00;;;19.20;87.60;;;;;;5057376;28;20422;-78
2021/08/11 00:25:54;;;;;;;6.00;4.37;;;19.20;87.80;;;;;;5059203;28;20180;-74
2021/08/11 00:28:20;;;;;;;11.40;5.03;;;19.20;87.80;;;;;;5051468;28;20430;-73
2021/08/11 00:30:46;;;;;;;8.57;4.70;;;19.20;87.70;;;;;;5055112;28;20482;-74
2021/08/11 00:33:12;;;;;;;9.53;4.57;;;19.20;87.80;;;;;;5046711;28;20415;-72
2021/08/11 00:35:37;;;;;;;9.40;5.17;;;19.10;88.30;;;;;;5037572;28;20891;-74
2021/08/11 00:38:03;;;;;;;7.80;5.03;;;19.10;88.30;;;;;;5049946;28;20234;-76
2021/08/11 00:40:31;;;;;;;6.40;4.20;;;19.10;88.30;;;;;;5048154;28;20212;-73
2021/08/11 00:42:57;;;;;;;6.13;4.17;;;19.10;88.40;;;;;;5048446;28;20187;-73
2021/08/11 00:45:23;;;;;;;7.80;4.87;;;19.10;88.60;;;;;;5039835;28;20433;-75
2021/08/11 00:47:54;;;;;;;5.90;4.60;;;19.20;88.60;;;;;;5044198;28;20432;-75
2021/08/11 00:50:20;;;;;;;8.77;4.70;;;19.20;88.60;;;;;;5043526;28;20528;-74
2021/08/11 00:52:47;;;;;;;10.93;4.60;;;19.20;88.60;;;;;;5041819;28;20592;-75
2021/08/11 00:55:14;;;;;;;7.23;4.37;;;19.20;88.40;;;;;;5048544;28;20890;-75
2021/08/11 00:57:41;;;;;;;7.90;4.67;;;19.20;88.00;;;;;;5044223;28;20425;-73
2021/08/11 01:00:08;;;;;;;8.70;4.87;;;19.20;87.70;;;;;;5047688;28;20921;-75
2021/08/11 01:02:35;;;;;;;8.03;4.30;;;19.20;87.60;;;;;;5042654;28;20416;-74
2021/08/11 01:05:01;;;;;;;5.93;4.13;;;19.20;87.80;;;;;;5048314;28;20416;-74
2021/08/11 01:07:28;;;;;;;11.07;6.00;;;19.10;88.10;;;;;;5051789;28;20814;-73
2021/08/11 01:09:55;;;;;;;7.90;4.93;;;19.10;88.30;;;;;;5051417;28;20462;-74
2021/08/11 01:12:25;;;;;;;9.83;4.90;;;19.10;88.30;;;;;;5044650;28;20431;-73
2021/08/11 01:14:51;;;;;;;8.50;4.90;;;19.20;88.40;;;;;;5051523;28;20436;-74
2021/08/11 01:17:23;;;;;;;8.03;4.43;;;19.20;88.30;;;;;;5046470;28;20518;-72
2021/08/11 01:19:49;;;;;;;10.03;5.50;;;19.10;88.30;;;;;;5053311;28;20949;-75
2021/08/11 01:22:24;;;;;;;7.07;4.97;;;19.10;88.30;;;;;;5049420;28;20425;-73
2021/08/11 01:25:08;;;;;;;6.87;4.53;;;19.10;88.40;;;;;;5050573;28;20184;-73
2021/08/11 01:27:49;;;;;;;10.60;4.83;;;19.20;88.30;;;;;;5044260;28;20425;-74
2021/08/11 01:30:15;;;;;;;9.30;4.47;;;19.20;88.00;;;;;;5043439;28;20470;-75
2021/08/11 01:32:43;;;;;;;7.97;4.50;;;19.20;87.70;;;;;;5047793;28;21007;-74
2021/08/11 01:35:13;;;;;;;11.57;5.17;;;19.30;87.70;;;;;;5045019;28;20197;-74
2021/08/11 01:37:42;;;;;;;7.53;4.20;;;19.30;87.10;;;;;;5051390;28;20436;-74
2021/08/11 01:40:11;;;;;;;11.13;5.10;;;19.30;86.30;;;;;;5047741;28;20518;-73
2021/08/11 01:42:41;;;;;;;9.40;4.43;;;19.30;86.60;;;;;;5051315;28;20590;-74
2021/08/11 01:45:09;;;;;;;8.70;4.20;;;19.20;87.10;;;;;;5050316;28;20469;-74
2021/08/11 01:47:59;;;;;;;8.53;4.60;;;19.20;87.70;;;;;;5050691;28;20451;-73
2021/08/11 01:50:28;;;;;;;9.70;4.50;;;19.20;88.00;;;;;;5046113;28;20464;-73
2021/08/11 01:52:55;;;;;;;9.03;4.97;;;19.10;88.10;;;;;;5049609;28;20547;-73
2021/08/11 01:55:21;;;;;;;8.07;4.53;;;19.10;88.30;;;;;;5042402;28;20419;-75
2021/08/11 01:57:52;;;;;;;7.30;4.60;;;19.10;88.00;;;;;;5049883;28;20425;-74
2021/08/11 02:00:21;;;;;;;7.60;4.60;;;19.00;88.10;;;;;;5050559;28;20693;-73
2021/08/11 02:02:48;;;;;;;10.63;5.77;;;19.00;88.30;;;;;;5045127;28;20786;-73
2021/08/11 02:05:15;;;;;;;7.70;4.43;;;18.90;87.70;;;;;;5048016;28;20453;-74
2021/08/11 02:07:41;;;;;;;9.80;4.80;;;18.90;87.70;;;;;;5050831;28;20782;-73
2021/08/11 02:10:10;;;;;;;7.00;4.00;;;18.90;87.80;;;;;;5048343;28;20463;-73
2021/08/11 02:12:37;;;;;;;8.10;4.97;;;18.80;88.40;;;;;;5048686;28;20462;-74
2021/08/11 02:15:09;;;;;;;8.37;4.27;;;18.80;89.20;;;;;;5049936;28;20430;-74
2021/08/11 02:17:38;;;;;;;8.60;4.70;;;18.70;89.60;;;;;;5043050;28;20811;-74
2021/08/11 02:20:10;;;;;;;6.00;3.93;;;18.70;89.90;;;;;;5045135;28;20467;-75
2021/08/11 02:22:36;;;;;;;8.63;4.60;;;18.60;90.10;;;;;;5047302;28;20473;-73
2021/08/11 02:25:12;;;;;;;5.73;3.90;;;18.60;90.30;;;;;;5044624;28;20519;-73
2021/08/11 02:27:51;;;;;;;7.27;4.70;;;18.50;90.30;;;;;;5049339;28;20445;-73
2021/08/11 02:30:22;;;;;;;8.63;4.70;;;18.50;90.30;;;;;;5054815;28;20441;-74
2021/08/11 02:32:54;;;;;;;9.93;4.70;;;18.40;90.30;;;;;;5050107;28;20517;-74
2021/08/11 02:35:23;;;;;;;11.70;5.80;;;18.40;90.40;;;;;;5047450;28;20444;-75
2021/08/11 02:37:54;;;;;;;8.87;4.83;;;18.20;90.70;;;;;;5046964;28;20432;-74
2021/08/11 02:40:31;;;;;;;9.00;5.40;;;18.10;91.00;;;;;;5061359;28;20464;-74
2021/08/11 02:43:36;;;;;;;10.97;5.20;;;18.20;91.00;;;;;;5055465;28;20414;-72
2021/08/11 02:46:08;;;;;;;11.40;4.20;;;18.20;91.10;;;;;;5046503;28;20450;-72
2021/08/11 02:48:34;;;;;;;12.03;5.07;;;18.10;91.20;;;;;;5046674;28;20760;-72
2021/08/11 02:51:02;;;;;;;9.30;4.77;;;18.10;91.30;;;;;;5050096;28;20443;-74
2021/08/11 02:53:29;;;;;;;7.73;4.87;;;18.10;91.50;;;;;;5049560;28;20428;-73
2021/08/11 02:55:55;;;;;;;7.50;4.70;;;18.10;91.50;;;;;;5049424;28;20426;-73
2021/08/11 02:58:22;;;;;;;8.20;4.93;;;18.10;91.30;;;;;;5047074;28;20425;-73
2021/08/11 03:00:51;;;;;;;7.00;5.30;;;18.10;91.10;;;;;;5044253;28;20548;-74
2021/08/11 03:03:18;;;;;;;8.73;4.70;;;18.10;91.10;;;;;;5049706;28;20428;-72
2021/08/11 03:05:45;;;;;;;9.83;5.40;;;18.10;91.20;;;;;;5049615;28;20545;-72
2021/08/11 03:08:12;;;;;;;6.60;4.73;;;18.00;91.30;;;;;;5040650;28;20439;-73
2021/08/11 03:10:39;;;;;;;9.57;5.30;;;18.00;91.20;;;;;;5043433;28;20612;-73
2021/08/11 03:13:06;;;;;;;6.77;4.90;;;18.00;91.30;;;;;;5038036;28;20433;-73
2021/08/11 03:15:32;;;;;;;8.90;5.07;;;18.00;91.20;;;;;;5042873;28;20559;-73
2021/08/11 03:17:59;;;;;;;10.47;5.50;;;17.90;91.40;;;;;;5044349;28;20423;-72
2021/08/11 03:20:25;;;;;;;8.10;5.00;;;17.90;91.50;;;;;;5041099;28;20478;-73
2021/08/11 03:22:50;;;;;;;9.43;5.13;;;17.90;91.50;;;;;;5043176;28;20432;-74
2021/08/11 03:25:16;;;;;;;9.67;5.63;;;17.80;91.80;;;;;;5038189;28;20439;-74
2021/08/11 03:27:42;;;;;;;11.03;5.00;;;17.80;91.80;;;;;;5041001;28;20189;-75
2021/08/11 03:30:08;;;;;;;11.27;5.33;;;17.70;91.90;;;;;;5045498;28;20592;-74
2021/08/11 03:32:34;;;;;;;16.73;6.17;;;17.70;92.00;;;;;;5048773;28;20189;-74
2021/08/11 03:35:00;;;;;;;12.37;6.07;;;17.60;92.30;;;;;;5044911;28;20441;-77
2021/08/11 03:37:25;;;;;;;10.57;5.33;;;17.50;92.60;;;;;;5048124;28;20202;-74
2021/08/11 03:39:51;;;;;;;8.40;5.27;;;17.40;92.70;;;;;;5047731;28;20223;-74
2021/08/11 03:42:17;;;;;;;9.90;5.10;;;17.40;93.20;;;;;;5046923;28;20215;-74
2021/08/11 03:44:43;;;;;;;8.97;5.43;;;17.40;93.20;;;;;;5049690;28;20267;-74
2021/08/11 03:47:08;;;;;;;8.37;6.13;;;17.30;93.20;;;;;;5046923;28;20184;-76
2021/08/11 03:49:34;;;;;;;7.67;5.53;;;17.30;93.40;;;;;;5041638;28;20258;-75
2021/08/11 03:52:00;;;;;;;12.33;5.63;;;17.30;93.60;;;;;;5037423;28;20204;-74
2021/08/11 03:54:26;;;;;;;8.67;5.80;;;17.30;93.70;;;;;;5041449;28;20180;-74
2021/08/11 03:56:51;;;;;;;10.50;5.50;;;17.30;93.60;;;;;;5043544;28;20801;-74
2021/08/11 03:59:17;;;;;;;14.47;6.27;;;17.40;93.60;;;;;;5039733;28;20706;-74
2021/08/11 04:01:43;;;;;;;10.77;5.47;;;17.40;93.40;;;;;;5042043;28;20862;-74
2021/08/11 04:04:08;;;;;;;9.60;5.50;;;17.40;93.20;;;;;;5045714;28;20195;-73
2021/08/11 04:06:34;;;;;;;13.57;5.67;;;17.40;93.20;;;;;;5041803;28;20295;-73
2021/08/11 04:09:00;;;;;;;10.60;5.77;;;17.40;93.30;;;;;;5042372;28;20584;-73
2021/08/11 04:11:26;;;;;;;10.27;6.00;;;17.40;93.20;;;;;;5043896;28;20203;-73
2021/08/11 04:13:52;;;;;;;11.80;5.43;;;17.40;92.90;;;;;;5041458;28;20205;-72
2021/08/11 04:16:17;;;;;;;9.80;5.57;;;17.40;93.20;;;;;;5041148;28;20594;-73
2021/08/11 04:18:43;;;;;;;12.03;4.90;;;17.40;93.30;;;;;;5044898;28;20786;-74
2021/08/11 04:21:09;;;;;;;12.60;6.73;;;17.40;93.30;;;;;;5040484;28;20553;-73
2021/08/11 04:23:34;;;;;;;8.93;5.20;;;17.50;93.30;;;;;;5046795;28;20298;-72
2021/08/11 04:26:00;;;;;;;12.07;5.70;;;17.50;93.30;;;;;;5040110;28;20193;-73
2021/08/11 04:28:26;;;;;;;11.23;6.00;;;17.50;93.10;;;;;;5044731;28;20226;-73
2021/08/11 04:30:52;;;;;;;12.93;7.00;;;17.40;93.10;;;;;;5047673;28;20208;-72
2021/08/11 04:33:18;;;;;;;15.13;6.70;;;17.30;93.30;;;;;;5043038;28;20189;-73
2021/08/11 04:35:44;;;;;;;9.67;5.20;;;17.30;93.60;;;;;;5049248;28;20474;-73
2021/08/11 04:38:10;;;;;;;13.00;6.23;;;17.30;93.40;;;;;;5044326;28;20430;-73
2021/08/11 04:40:37;;;;;;;11.03;5.97;;;17.20;93.70;;;;;;5046959;28;20544;-73
2021/08/11 04:43:06;;;;;;;8.83;5.07;;;17.20;93.70;;;;;;5046617;28;20438;-73
2021/08/11 04:45:37;;;;;;;9.47;5.73;;;17.30;93.70;;;;;;5051438;28;20458;-73
2021/08/11 04:48:03;;;;;;;8.93;5.13;;;17.30;93.50;;;;;;5051565;28;20514;-74
2021/08/11 04:50:29;;;;;;;10.73;6.10;;;17.20;93.50;;;;;;5051786;28;20529;-73
2021/08/11 04:52:55;;;;;;;8.30;5.07;;;17.20;93.70;;;;;;5051583;28;20431;-73
2021/08/11 04:55:20;;;;;;;7.73;6.10;;;17.20;93.70;;;;;;5050858;28;20180;-73
2021/08/11 04:57:46;;;;;;;13.73;6.13;;;17.20;93.70;;;;;;5051303;28;20198;-73
2021/08/11 05:00:12;;;;;;;11.90;6.10;;;17.30;93.60;;;;;;5051563;28;20235;-73
2021/08/11 05:02:38;;;;;;;10.30;5.70;;;17.30;93.70;;;;;;5051496;28;20227;-74
2021/08/11 05:05:06;;;;;;;11.20;6.13;;;17.20;93.80;;;;;;5050884;28;20450;-74
2021/08/11 05:07:31;;;;;;;12.80;5.97;;;17.20;93.90;;;;;;5050121;28;20181;-74
2021/08/11 05:09:57;;;;;;;12.47;5.67;;;17.30;93.90;;;;;;5049786;28;20451;-73
2021/08/11 05:12:24;;;;;;;9.60;5.77;;;17.40;93.70;;;;;;5045578;28;20204;-74
2021/08/11 05:14:53;;;;;;;11.10;5.40;;;17.40;93.70;;;;;;5046713;28;20185;-74
2021/08/11 05:17:21;;;;;;;12.40;6.17;;;17.40;93.60;;;;;;5049038;28;20951;-74
2021/08/11 05:19:51;;;;;;;11.20;6.07;;;17.50;93.10;;;;;;5051046;28;20470;-74
2021/08/11 05:22:18;;;;;;;30.33;6.23;;;17.50;93.10;;;;;;5051531;28;20426;-73
2021/08/11 05:24:44;;;;;;;12.20;5.37;;;17.60;93.00;;;;;;5045346;28;20419;-73
2021/08/11 05:27:11;;;;;;;14.03;5.53;;;17.60;92.70;;;;;;5047047;28;20423;-73
2021/08/11 05:29:37;;;;;;;10.70;6.00;;;17.60;92.70;;;;;;5050829;28;20796;-74
2021/08/11 05:32:03;;;;;;;12.20;6.63;;;17.60;92.90;;;;;;5050504;28;20437;-73
2021/08/11 05:34:29;;;;;;;9.70;5.57;;;17.60;92.70;;;;;;5049260;28;20180;-73
2021/08/11 05:36:54;;;;;;;11.60;5.80;;;17.70;92.80;;;;;;5043923;28;20433;-74
2021/08/11 05:39:20;;;;;;;12.07;5.93;;;17.70;92.80;;;;;;5040184;28;20306;-74
2021/08/11 05:41:46;;;;;;;10.67;5.90;;;17.90;92.70;;;;;;5052102;28;20184;-75
2021/08/11 05:44:11;;;;;;;9.60;5.83;;;18.10;91.80;;;;;;5045736;28;20181;-73
2021/08/11 05:46:37;;;;;;;10.67;5.70;;;18.10;91.40;;;;;;5043952;28;20260;-73
2021/08/11 05:49:04;;;;;;;12.07;6.80;;;18.20;91.20;;;;;;5046321;28;20185;-75
2021/08/11 05:51:34;;;;;;;10.00;6.10;;;18.30;91.00;;;;;;5051256;28;20263;-73
2021/08/11 05:54:01;;;;;;;11.80;6.17;;;18.30;91.00;;;;;;5044874;28;20420;-74
2021/08/11 05:56:27;;;;;;;15.40;6.77;;;18.40;90.70;;;;;;5044176;28;20415;-75
2021/08/11 05:58:53;;;;;;;13.23;6.50;;;18.40;90.70;;;;;;5041481;28;20457;-74
2021/08/11 06:01:19;;;;;;;11.90;6.80;;;18.40;90.60;;;;;;5051707;28;20427;-74
2021/08/11 06:03:44;;;;;;;11.83;6.03;;;18.40;90.60;;;;;;5045203;28;20234;-77
2021/08/11 06:06:11;;;;;;;16.93;7.60;;;18.40;90.80;;;;;;5050947;28;20561;-75
2021/08/11 06:08:37;;;;;;;19.53;6.20;;;18.50;90.60;;;;;;5041525;28;20181;-74
2021/08/11 06:11:02;;;;;;;13.60;6.90;;;18.60;90.40;;;;;;5046979;28;20555;-75
2021/08/11 06:13:28;;;;;;;11.70;6.10;;;18.70;90.20;;;;;;5044849;28;20663;-73
2021/08/11 06:15:54;;;;;;;14.03;6.57;;;18.80;90.10;;;;;;5044491;28;20784;-77
2021/08/11 06:18:19;;;;;;;14.83;6.60;;;18.90;89.60;;;;;;5043806;28;20229;-77
2021/08/11 06:20:47;;;;;;;15.97;6.37;;;19.00;89.60;;;;;;5050500;28;20219;-76
2021/08/11 06:23:13;;;;;;;12.77;6.17;;;19.20;89.00;;;;;;5051395;28;20188;-73
2021/08/11 06:25:38;;;;;;;10.07;6.00;;;19.40;88.70;;;;;;5052555;28;20419;-73
2021/08/11 06:28:04;;;;;;;11.00;6.10;;;19.50;88.00;;;;;;5035839;28;20187;-74
2021/08/11 06:30:30;;;;;;;13.17;6.40;;;19.70;87.00;;;;;;5051839;28;20203;-74
2021/08/11 06:32:56;;;;;;;16.03;6.17;;;19.90;86.20;;;;;;5054669;28;20197;-72
2021/08/11 06:35:21;;;;;;;13.80;6.20;;;20.10;85.50;;;;;;5040487;28;20205;-74
2021/08/11 06:37:49;;;;;;;8.17;5.63;;;20.30;84.90;;;;;;5043058;28;20280;-74
2021/08/11 06:40:17;;;;;;;10.90;6.07;;;20.30;84.40;;;;;;5045098;28;20269;-73
2021/08/11 06:42:43;;;;;;;21.90;6.83;;;20.50;84.00;;;;;;5042702;28;20891;-74
2021/08/11 06:45:09;;;;;;;17.13;7.00;;;20.60;83.60;;;;;;5048652;28;20442;-75
2021/08/11 06:47:36;;;;;;;10.50;6.33;;;20.70;82.70;;;;;;5049174;28;20189;-74
2021/08/11 06:50:03;;;;;;;16.07;6.50;;;20.80;82.20;;;;;;5049948;28;20477;-74
2021/08/11 06:52:33;;;;;;;14.67;6.30;;;20.90;81.50;;;;;;5042769;28;20630;-73
2021/08/11 06:55:00;;;;;;;19.13;7.53;;;20.90;81.50;;;;;;5041834;28;20430;-74
2021/08/11 06:57:26;;;;;;;24.40;7.00;;;21.00;81.50;;;;;;5042949;28;20432;-74
2021/08/11 06:59:52;;;;;;;14.13;7.13;;;21.00;81.80;;;;;;5040321;28;20639;-74
2021/08/11 07:02:17;;;;;;;17.40;6.43;;;21.00;82.20;;;;;;5041880;28;20281;-75
2021/08/11 07:04:43;;;;;;;10.10;5.20;;;21.00;82.40;;;;;;5046385;28;20188;-74
2021/08/11 07:07:09;;;;;;;11.03;5.70;;;21.00;82.40;;;;;;5038726;28;20191;-73
2021/08/11 07:09:34;;;;;;;11.10;5.30;;;21.10;82.10;;;;;;5045710;28;20295;-74
2021/08/11 07:12:02;;;;;;;6.90;5.27;;;21.10;81.80;;;;;;5039918;28;20184;-74
2021/08/11 07:14:27;;;;;;;10.23;6.00;;;21.20;81.70;;;;;;5043784;28;20252;-73
2021/08/11 07:16:53;;;;;;;13.00;5.87;;;21.20;81.50;;;;;;5042771;28;20926;-73
2021/08/11 07:19:19;;;;;;;15.43;6.37;;;21.30;80.80;;;;;;5042875;28;20225;-73
2021/08/11 07:21:44;;;;;;;17.23;6.23;;;21.40;80.90;;;;;;5041401;28;20612;-73
2021/08/11 07:24:10;;;;;;;10.53;6.33;;;21.30;80.60;;;;;;5042295;28;20185;-75
2021/08/11 07:26:36;;;;;;;10.87;5.77;;;21.30;80.60;;;;;;5045040;28;20253;-73
2021/08/11 07:29:01;;;;;;;15.50;6.70;;;21.40;80.00;;;;;;5040869;28;20178;-73
2021/08/11 07:31:27;;;;;;;10.57;6.63;;;21.40;80.20;;;;;;5058171;28;20192;-73
2021/08/11 07:33:53;;;;;;;11.93;6.20;;;21.40;80.00;;;;;;5056425;28;20184;-73
2021/08/11 07:36:19;;;;;;;11.70;6.80;;;21.40;80.30;;;;;;5064195;28;20195;-73
2021/08/11 07:38:44;;;;;;;16.73;6.30;;;21.50;80.20;;;;;;5054722;28;20184;-73
2021/08/11 07:41:10;;;;;;;8.67;5.77;;;21.60;80.20;;;;;;5065327;28;20656;-73
2021/08/11 07:43:36;;;;;;;7.40;5.50;;;21.60;79.50;;;;;;5049463;28;20352;-73
2021/08/11 07:46:02;;;;;;;10.30;5.43;;;21.70;78.90;;;;;;5042307;28;20199;-72
2021/08/11 07:48:27;;;;;;;11.63;6.10;;;21.80;78.70;;;;;;5047516;28;20679;-73
2021/08/11 07:50:53;;;;;;;12.40;6.57;;;22.00;78.00;;;;;;5043693;28;20211;-73
2021/08/11 07:53:19;;;;;;;11.40;5.73;;;22.10;78.00;;;;;;5034725;28;20204;-73
2021/08/11 07:55:44;;;;;;;8.20;5.20;;;22.10;77.00;;;;;;5049520;28;20211;-73
2021/08/11 07:58:10;;;;;;;13.90;6.10;;;22.20;76.20;;;;;;5042326;28;20192;-73
2021/08/11 08:00:36;;;;;;;12.77;4.70;;;22.20;76.10;;;;;;5043723;28;20222;-74
2021/08/11 08:03:02;;;;;;;8.23;4.80;;;22.30;75.50;;;;;;5037217;28;20196;-74
2021/08/11 08:05:27;;;;;;;8.23;4.80;;;22.40;75.40;;;;;;5042322;28;20184;-73
2021/08/11 08:07:53;;;;;;;12.70;5.40;;;22.50;74.00;;;;;;5052447;28;20187;-73
2021/08/11 08:10:19;;;;;;;7.83;5.37;;;22.60;73.00;;;;;;5046596;28;20208;-74
2021/08/11 08:12:45;;;;;;;6.60;4.60;;;22.60;73.00;;;;;;5048549;28;20564;-74
2021/08/11 08:15:13;;;;;;;6.83;4.47;;;22.60;73.00;;;;;;5045674;28;20427;-73
2021/08/11 08:17:38;;;;;;;6.40;4.63;;;22.70;73.30;;;;;;5044606;28;20429;-73
2021/08/11 08:20:05;;;;;;;8.00;5.13;;;22.80;73.30;;;;;;5042906;28;20545;-73
2021/08/11 08:22:31;;;;;;;6.50;5.03;;;22.80;73.00;;;;;;5051409;28;20640;-73
2021/08/11 08:24:56;;;;;;;6.53;4.90;;;22.90;72.90;;;;;;5041690;28;20430;-73
2021/08/11 08:27:23;;;;;;;7.33;4.33;;;23.10;72.00;;;;;;5046521;28;20198;-74
2021/08/11 08:29:50;;;;;;;9.77;4.53;;;23.20;71.70;;;;;;5047346;28;20214;-72
2021/08/11 08:32:16;;;;;;;9.30;4.80;;;23.20;71.60;;;;;;5048155;28;20440;-74
2021/08/11 08:34:42;;;;;;;11.70;5.30;;;23.20;71.30;;;;;;5045366;28;20425;-75
2021/08/11 08:37:08;;;;;;;8.50;5.20;;;23.30;71.40;;;;;;5040085;28;20440;-72
2021/08/11 08:39:33;;;;;;;9.27;5.23;;;23.30;71.40;;;;;;5043769;28;20332;-75
2021/08/11 08:42:00;;;;;;;9.10;5.07;;;23.30;70.50;;;;;;5038077;28;20204;-74
2021/08/11 08:44:27;;;;;;;10.50;5.60;;;23.30;71.40;;;;;;5047039;28;20713;-73
2021/08/11 08:46:55;;;;;;;9.27;5.60;;;23.30;71.40;;;;;;5035451;28;20920;-72
2021/08/11 08:49:21;;;;;;;7.37;5.20;;;23.40;71.40;;;;;;5043813;28;20449;-73
2021/08/11 08:51:53;;;;;;;7.83;5.40;;;23.50;71.30;;;;;;5036501;28;20981;-75
2021/08/11 08:54:23;;;;;;;9.87;5.53;;;23.60;71.30;;;;;;5050471;28;20437;-75
2021/08/11 08:56:49;;;;;;;9.13;4.93;;;23.60;71.40;;;;;;5051753;28;20421;-73
2021/08/11 08:59:15;;;;;;;10.40;5.87;;;23.70;70.20;;;;;;5051997;28;20477;-75
2021/08/11 09:01:41;;;;;;;9.67;6.00;;;23.90;69.50;;;;;;5048025;28;21022;-74
2021/08/11 09:04:07;;;;;;;10.30;5.07;;;23.90;69.70;;;;;;5051456;28;20273;-74
2021/08/11 09:06:37;;;;;;;7.50;4.80;;;23.90;69.90;;;;;;5051078;28;20447;-74
2021/08/11 09:09:10;;;;;;;7.23;4.90;;;24.10;69.70;;;;;;5047453;28;20609;-74
2021/08/11 09:11:39;;;;;;;7.17;5.47;;;24.10;68.90;;;;;;5043047;28;20913;-77
2021/08/11 09:14:30;;;;;;;7.57;5.10;;;24.30;68.00;;;;;;5047258;28;20438;-74
2021/08/11 09:16:59;;;;;;;8.30;5.90;;;24.30;67.90;;;;;;5043989;28;20464;-73
2021/08/11 09:19:35;;;;;;;7.67;5.03;;;24.40;67.30;;;;;;5043661;28;20530;-75
2021/08/11 09:22:03;;;;;;;9.37;5.23;;;24.40;67.50;;;;;;5044445;28;20458;-76
2021/08/11 09:24:32;;;;;;;8.67;4.80;;;24.50;67.50;;;;;;5039335;28;20419;-75
2021/08/11 09:27:20;;;;;;;11.13;6.30;;;24.60;67.60;;;;;;5041378;28;20426;-74
2021/08/11 09:30:01;;;;;;;7.50;4.70;;;24.60;66.70;;;;;;5042424;28;20537;-72
2021/08/11 09:32:27;;;;;;;7.37;4.50;;;24.60;67.00;;;;;;5041919;28;20873;-74
2021/08/11 09:35:02;;;;;;;10.03;5.70;;;24.60;67.20;;;;;;5040225;28;20443;-74
2021/08/11 09:37:38;;;;;;;8.63;5.57;;;24.80;67.20;;;;;;5039903;28;20919;-74
2021/08/11 09:40:15;;;;;;;7.83;5.07;;;24.80;66.70;;;;;;5044982;28;20470;-75
2021/08/11 09:42:42;;;;;;;9.70;5.20;;;25.00;65.60;;;;;;5041792;28;20829;-75
2021/08/11 09:45:09;;;;;;;8.23;5.20;;;25.00;65.60;;;;;;5041993;28;21276;-73
2021/08/11 09:47:37;;;;;;;10.60;5.13;;;25.10;65.80;;;;;;5037697;28;20431;-73
2021/08/11 09:50:11;;;;;;;7.97;5.20;;;25.30;66.10;;;;;;5042784;28;20453;-73
2021/08/11 09:52:51;;;;;;;6.10;4.43;;;25.50;65.60;;;;;;5037432;28;20420;-74
2021/08/11 09:55:18;;;;;;;7.33;4.40;;;25.80;63.70;;;;;;5049386;28;20857;-77
2021/08/11 09:57:45;;;;;;;10.03;5.10;;;26.00;62.20;;;;;;5051118;28;20930;-81
2021/08/11 10:00:14;;;;;;;6.47;4.57;;;26.10;61.90;;;;;;5042163;28;20473;-72
2021/08/11 10:02:41;;;;;;;5.30;4.27;;;26.20;60.90;;;;;;5055946;28;20528;-74
2021/08/11 10:05:09;;;;;;;7.23;4.60;;;26.30;61.30;;;;;;5052970;28;20798;-74
2021/08/11 10:07:35;;;;;;;8.40;5.00;;;26.50;60.70;;;;;;5048839;28;20425;-75
2021/08/11 10:10:02;;;;;;;7.23;4.57;;;26.70;60.30;;;;;;5052860;28;20446;-72
2021/08/11 10:12:29;;;;;;;7.13;4.33;;;26.70;59.70;;;;;;5058626;28;20877;-72
2021/08/11 10:14:57;;;;;;;6.10;4.80;;;26.80;59.70;;;;;;5051642;28;20435;-72
2021/08/11 10:17:27;;;;;;;6.90;4.67;;;26.90;60.00;;;;;;5049422;28;20884;-74
2021/08/11 10:19:53;;;;;;;10.20;4.70;;;27.10;59.50;;;;;;5050555;28;20559;-72
2021/08/11 10:22:21;;;;;;;11.80;5.00;;;27.20;59.50;;;;;;5049589;28;20923;-73
2021/08/11 10:24:49;;;;;;;8.80;4.40;;;27.30;58.50;;;;;;5046987;28;20201;-72
2021/08/11 10:27:17;;;;;;;8.47;5.40;;;27.40;57.70;;;;;;5039642;28;20430;-74
2021/08/11 10:29:44;;;;;;;8.23;4.83;;;27.30;58.10;;;;;;5037060;28;20449;-72
2021/08/11 10:32:10;;;;;;;8.07;5.80;;;27.30;58.20;;;;;;5039917;28;20441;-73
2021/08/11 10:34:37;;;;;;;6.90;5.00;;;27.40;58.40;;;;;;5049051;28;20430;-73
2021/08/11 10:37:03;;;;;;;7.20;5.30;;;27.60;58.10;;;;;;5049737;28;20236;-75
2021/08/11 10:39:31;;;;;;;6.20;5.20;;;27.80;57.00;;;;;;5042024;28;20501;-73
2021/08/11 10:42:00;;;;;;;9.33;5.57;;;27.60;57.60;;;;;;5042899;28;20433;-72
2021/08/11 10:44:27;;;;;;;6.87;5.00;;;27.60;58.00;;;;;;5048531;28;20838;-72
2021/08/11 10:46:56;;;;;;;6.87;5.10;;;27.50;58.80;;;;;;5039954;28;20431;-74
2021/08/11 10:49:27;;;;;;;6.93;5.00;;;27.30;59.20;;;;;;5048180;28;20926;-73
2021/08/11 10:51:58;;;;;;;8.00;5.33;;;27.20;59.60;;;;;;5037990;28;20437;-75
2021/08/11 10:54:24;;;;;;;9.23;5.40;;;27.00;60.10;;;;;;5046794;28;20434;-76
2021/08/11 10:56:57;;;;;;;8.90;5.10;;;26.80;60.10;;;;;;5050725;28;20426;-75
2021/08/11 10:59:28;;;;;;;8.50;5.70;;;26.60;60.90;;;;;;5045095;28;21271;-74
2021/08/11 11:01:58;;;;;;;8.90;5.20;;;26.50;61.00;;;;;;5042468;28;20449;-74
2021/08/11 11:04:43;;;;;;;6.13;5.00;;;26.50;61.00;;;;;;5042188;28;20525;-73
2021/08/11 11:07:12;;;;;;;9.17;6.10;;;26.50;61.20;;;;;;5044483;28;20823;-74
2021/08/11 11:09:39;;;;;;;9.20;5.33;;;26.70;61.30;;;;;;5037922;28;20899;-74
2021/08/11 11:12:17;;;;;;;7.33;5.10;;;27.10;59.50;;;;;;5040390;28;20440;-73
2021/08/11 11:14:57;;;;;;;6.00;4.50;;;27.30;59.50;;;;;;5040079;28;20835;-75
2021/08/11 11:17:34;;;;;;;6.73;4.90;;;27.40;59.50;;;;;;5042037;28;20525;-75
2021/08/11 11:20:03;;;;;;;8.10;5.57;;;27.90;57.80;;;;;;5042208;28;20477;-73
2021/08/11 11:22:43;;;;;;;10.97;4.87;;;28.50;56.00;;;;;;5040579;28;20448;-76
2021/08/11 11:25:15;;;;;;;8.10;4.73;;;29.20;54.50;;;;;;5043554;28;20427;-74
2021/08/11 11:27:44;;;;;;;9.90;5.73;;;29.80;52.40;;;;;;5039771;28;20457;-74
2021/08/11 11:30:14;;;;;;;8.77;5.50;;;29.90;50.70;;;;;;5041617;28;20949;-74
2021/08/11 11:32:41;;;;;;;11.37;5.53;;;30.10;50.60;;;;;;5042811;28;20423;-75
2021/08/11 11:35:24;;;;;;;7.33;4.87;;;30.10;50.30;;;;;;5043749;28;20438;-76
2021/08/11 11:38:09;;;;;;;10.17;4.77;;;30.10;49.90;;;;;;5043346;28;20431;-74
2021/08/11 11:40:54;;;;;;;6.90;5.17;;;30.60;49.40;;;;;;5047094;28;20478;-74
2021/08/11 11:43:27;;;;;;;8.40;5.60;;;30.50;50.20;;;;;;5046112;28;20420;-73
2021/08/11 11:45:54;;;;;;;11.67;6.57;;;29.50;53.60;;;;;;5049203;28;20419;-74
2021/08/11 11:48:20;;;;;;;10.10;6.13;;;28.60;56.10;;;;;;5043435;28;20420;-73
2021/08/11 11:51:08;;;;;;;11.47;5.70;;;28.00;58.20;;;;;;5048342;28;20446;-72
2021/08/11 11:53:36;;;;;;;10.93;5.40;;;27.70;58.70;;;;;;5040300;28;20218;-75
2021/08/11 11:56:13;;;;;;;9.63;5.27;;;27.30;59.50;;;;;;5043761;28;20421;-74
2021/08/11 11:58:47;;;;;;;11.30;6.13;;;27.10;59.60;;;;;;5042815;28;20929;-74
2021/08/11 12:01:13;;;;;;;9.03;5.93;;;27.00;60.00;;;;;;5041026;28;20600;-75
2021/08/11 12:03:46;;;;;;;7.13;4.77;;;27.30;58.70;;;;;;5037928;28;20425;-73
2021/08/11 12:06:13;;;;;;;8.53;5.20;;;27.40;57.80;;;;;;5038323;28;20435;-76
2021/08/11 12:08:39;;;;;;;9.73;5.20;;;27.50;58.10;;;;;;5040499;28;20559;-75
2021/08/11 12:11:10;;;;;;;8.10;5.47;;;27.70;58.00;;;;;;5043809;28;20537;-73
2021/08/11 12:13:50;;;;;;;8.20;4.80;;;28.20;57.30;;;;;;5040795;28;20431;-74
2021/08/11 12:16:18;;;;;;;6.73;5.00;;;28.70;55.00;;;;;;5038419;28;20526;-73
2021/08/11 12:18:48;;;;;;;9.07;5.30;;;28.90;54.20;;;;;;5047418;28;20423;-75
2021/08/11 12:21:20;;;;;;;13.50;6.27;;;29.10;54.20;;;;;;5035867;28;20486;-74
2021/08/11 12:23:46;;;;;;;8.60;5.30;;;29.40;53.60;;;;;;5043240;28;20431;-74
2021/08/11 12:26:17;;;;;;;9.57;5.40;;;29.40;53.40;;;;;;5034782;28;20958;-74
2021/08/11 12:28:50;;;;;;;9.10;4.87;;;28.80;54.90;;;;;;5042361;28;20450;-74
2021/08/11 12:31:20;;;;;;;11.60;5.60;;;28.30;56.20;;;;;;5046261;28;20514;-74
2021/08/11 12:33:48;;;;;;;10.20;4.90;;;28.20;56.60;;;;;;5037552;28;20420;-74
2021/08/11 12:36:20;;;;;;;11.00;5.07;;;28.20;56.50;;;;;;5043854;28;20928;-78
2021/08/11 12:39:05;;;;;;;6.93;4.77;;;28.30;56.50;;;;;;5035875;28;20452;-74
2021/08/11 12:41:33;;;;;;;7.33;4.67;;;28.70;55.80;;;;;;5038376;28;20470;-74
2021/08/11 12:44:10;;;;;;;10.93;5.70;;;29.20;54.50;;;;;;5040211;28;20420;-74
2021/08/11 12:46:48;;;;;;;7.47;5.13;;;29.30;53.20;;;;;;5037359;28;20419;-75
2021/08/11 12:49:23;;;;;;;7.57;4.80;;;28.90;54.80;;;;;;5045542;28;20804;-75